Thunder radar more information blitzortung!


Radar de pluja more information rain snow radar


Visita la nostra xarxa de llocs de meteo:

Template documentation
and downloads

And another site



No particular awareness of the weather is required.    There are no Weather-warnings

Pagina Historial Weather Underground text

Diari Resum Abril 22, 2016 Unitats:  Mètric    Imperial   Tant
« Previous Dia
SegĂźent Dia »
Diari Setmana Mensual Anual Personalitzada
  Maxima: Minima: Media:
Temperatura: -17.8 °C -11.6 °C -9.3 °C
Punt de rosada: -17.8 °C -12.9 °C -11.7 °C
Humitat: Humidity % 63 % 75 %
Wind Speed: 0 km/h 0 km/h 7.7 km/h
RĂ fegues de vent: 0 km/h - -
Vent:- - SSW
Pression baro: 0 hPa 34395 hPa -
Precipitacions: 33.02 mm    
Historical Graphs
 
 
Dades de taula per Abril 22, 2016
Temps Temperatura Punt de rosada Pression baro Vent Wind Speed RĂ fegues de vent Humitat Rainfall Rate (Hourly)
-17.8 °C -17.8 °C 0 hPa Calm     Humidity % 0 mm
00:03 -10.8 °C -11.8 °C 34601.5 hPa Calm     89 % 0 mm
00:05 -10.9 °C -11.7 °C 34601.5 hPa ENE 2.6 km/h 5.1 km/h 91 % 0 mm
00:08 -10.8 °C -11.8 °C 34601.5 hPa Calm     89 % 0 mm
00:13 -10.8 °C -11.8 °C 34601.5 hPa South 3.1 km/h 3.1 km/h 89 % 0 mm
00:15 -11 °C -11.9 °C 34567.7 hPa ENE 5.1 km/h 5.1 km/h 90 % 0 mm
00:18 -10.8 °C -11.8 °C 34601.5 hPa Calm     89 % 0 mm
00:23 -10.8 °C -11.7 °C 34601.5 hPa ESE 6 km/h 6 km/h 90 % 0 mm
00:25 -11.1 °C -12.1 °C 34567.7 hPa NE 5.1 km/h 7.7 km/h 89 % 0 mm
00:35 -11.3 °C -12.3 °C 34567.7 hPa NE 5.1 km/h 7.7 km/h 89 % 0 mm
00:45 -11.3 °C -12.4 °C 34567.7 hPa NE 5.1 km/h 7.7 km/h 88 % 0 mm
00:55 -11.4 °C -12.6 °C 34567.7 hPa NNE 2.6 km/h 5.1 km/h 87 % 0 mm
01:05 -11.4 °C -12.6 °C 34567.7 hPa North 2.6 km/h 5.1 km/h 87 % 0 mm
01:15 -11.5 °C -12.7 °C 34567.7 hPa NNE 5.1 km/h 10.3 km/h 87 % 0 mm
01:25 -11.5 °C -12.7 °C 34567.7 hPa NE 2.6 km/h 5.1 km/h 87 % 0 mm
01:35 -11.6 °C -12.7 °C 34567.7 hPa NE 2.6 km/h 7.7 km/h 87 % 0 mm
01:55 -11.6 °C -12.7 °C 34567.7 hPa NNE 2.6 km/h 5.1 km/h 87 % 0 mm
02:05 -11.6 °C -12.7 °C 34567.7 hPa NE 5.1 km/h 7.7 km/h 87 % 0 mm
02:15 -11.6 °C -12.7 °C 34567.7 hPa NE 2.6 km/h 5.1 km/h 87 % 0 mm
02:25 -11.6 °C -12.7 °C 34567.7 hPa NNE 2.6 km/h 5.1 km/h 87 % 0 mm
02:35 -11.5 °C -12.7 °C 34567.7 hPa Calm   5.1 km/h 87 % 0 mm
02:45 -11.5 °C -12.7 °C 34601.5 hPa Calm   5.1 km/h 87 % 0 mm
03:05 -11.5 °C -12.7 °C 34635.4 hPa Calm     87 % 0 mm
03:15 -11.4 °C -12.7 °C 34601.5 hPa Calm   5.1 km/h 86 % 0 mm
03:25 -11.4 °C -12.6 °C 34601.5 hPa Calm   5.1 km/h 87 % 0 mm
03:35 -11.2 °C -12.4 °C 34601.5 hPa SW 5.1 km/h 5.1 km/h 87 % 0 mm
03:45 -11.1 °C -12.3 °C 34601.5 hPa SW 2.6 km/h 7.7 km/h 87 % 0 mm
03:55 -11 °C -12.1 °C 34601.5 hPa Calm   7.7 km/h 88 % 0 mm
04:05 -10.8 °C -11.8 °C 34601.5 hPa Calm   2.6 km/h 88 % 0 mm
04:15 -10.5 °C -11.6 °C 34601.5 hPa Calm   7.7 km/h 88 % 0 mm
04:25 -10.3 °C -11.4 °C 34601.5 hPa Calm   2.6 km/h 87 % 0 mm
04:35 -10 °C -11.3 °C 34601.5 hPa WSW 2.6 km/h 5.1 km/h 86 % 0 mm
04:45 -10 °C -11.5 °C 34601.5 hPa West 2.6 km/h 10.3 km/h 84 % 0 mm
04:55 -9.8 °C -11.4 °C 34601.5 hPa NE 5.1 km/h 5.1 km/h 83 % 0 mm
05:05 -9.8 °C -11.5 °C 34601.5 hPa NE 2.6 km/h 5.1 km/h 82 % 0 mm
05:15 -9.6 °C -11.3 °C 34601.5 hPa Calm   7.7 km/h 82 % 0 mm
05:25 -9.5 °C -11.3 °C 34601.5 hPa NNE 2.6 km/h 7.7 km/h 81 % 0 mm
10:29 -9.5 °C -11.4 °C 34601.5 hPa ENE 6 km/h 6 km/h 80 % 0 mm
10:34 -9.4 °C -11.2 °C 34601.5 hPa ESE 3.1 km/h   81 % 0 mm
10:39 -9.4 °C -11.2 °C 34601.5 hPa WSW 6.3 km/h 6.3 km/h 81 % 0 mm
10:44 -9.4 °C -11.1 °C 34601.5 hPa SW 6.8 km/h 7.6 km/h 82 % 0 mm
10:49 -9.4 °C -11.2 °C 34601.5 hPa SW 9 km/h 9 km/h 81 % 0 mm
10:54 -9.4 °C -11.2 °C 34601.5 hPa ESE 5.1 km/h 5.1 km/h 81 % 0 mm
10:59 -9.2 °C -11 °C 34601.5 hPa SW 3.1 km/h 3.1 km/h 81 % 0 mm
11:04 -9.2 °C -11 °C 34601.5 hPa SSW 9 km/h 9 km/h 81 % 0 mm
11:09 -9.3 °C -11.1 °C 34601.5 hPa South 5.1 km/h 5.1 km/h 81 % 0 mm
11:14 -9.3 °C -11.2 °C 34601.5 hPa WSW 6 km/h   80 % 0 mm
11:19 -9.2 °C -11.2 °C 34601.5 hPa SW 9 km/h 9 km/h 80 % 0 mm
11:24 -9.3 °C -11.2 °C 34601.5 hPa WSW 6 km/h   80 % 0 mm
11:29 -9.2 °C -11.2 °C 34601.5 hPa WSW 9 km/h 9 km/h 80 % 0 mm
11:34 -9.2 °C -11.2 °C 34601.5 hPa WSW 6 km/h   79 % 0 mm
11:39 -9.1 °C -11.2 °C 34601.5 hPa SSW 6.3 km/h 6.3 km/h 79 % 0 mm
11:44 -9.1 °C -11.1 °C 34567.7 hPa SW 11.9 km/h 11.9 km/h 79 % 0 mm
11:54 -8.9 °C -10.9 °C 34567.7 hPa SW 14 km/h 14 km/h 79 % 0 mm
11:59 -8.9 °C -11.1 °C 34567.7 hPa SSE 6 km/h 6 km/h 78 % 0 mm
12:04 -8.7 °C -10.9 °C 34567.7 hPa SW 11.1 km/h 11.1 km/h 78 % 0 mm
12:09 -8.7 °C -10.9 °C 34567.7 hPa SW 11.9 km/h 11.9 km/h 78 % 0 mm
12:14 -8.7 °C -10.9 °C 34567.7 hPa SSE 9 km/h 9 km/h 77 % 0 mm
12:19 -8.6 °C -10.9 °C 34567.7 hPa South 9 km/h 9 km/h 76 % 0 mm
12:24 -8.4 °C -10.9 °C 34567.7 hPa South 11.9 km/h 11.9 km/h 75 % 0 mm
12:29 -8.2 °C -10.8 °C 34567.7 hPa SSW 9 km/h 9 km/h 74 % 0 mm
12:34 -7.8 °C -10.6 °C 34567.7 hPa East 11.1 km/h 11.1 km/h 73 % 0 mm
12:39 -7.7 °C -10.6 °C 34567.7 hPa WSW 15 km/h 15 km/h 72 % 0 mm
12:44 -7.8 °C -10.8 °C 34533.8 hPa WSW 6 km/h 6 km/h 71 % 0 mm
12:49 -7.8 °C -10.8 °C 34533.8 hPa SW 8.5 km/h 8.5 km/h 71 % 0 mm
12:54 -7.9 °C -11 °C 34533.8 hPa West 11.9 km/h 11.9 km/h 70 % 0 mm
12:59 -8 °C -11.1 °C 34533.8 hPa SW 6.3 km/h 6.3 km/h 70 % 0 mm
13:04 -7.7 °C -10.8 °C 34533.8 hPa SW 6 km/h 6 km/h 70 % 0 mm
13:09 -7.8 °C -11.1 °C 34533.8 hPa SW 11.9 km/h 11.9 km/h 68 % 0 mm
13:14 -7.8 °C -11.1 °C 34533.8 hPa SSE 9 km/h 9 km/h 68 % 0 mm
13:24 -7.7 °C -10.9 °C 34533.8 hPa West 11.9 km/h 11.9 km/h 69 % 0 mm
13:29 -7.5 °C -10.8 °C 34533.8 hPa SW 9 km/h 9 km/h 68 % 0 mm
13:34 -7.4 °C -10.7 °C 34533.8 hPa WSW 12.7 km/h 12.7 km/h 68 % 0 mm
13:39 -7.6 °C -11.1 °C 34533.8 hPa WNW 16.6 km/h 16.6 km/h 67 % 0 mm
13:44 -7.4 °C -10.9 °C 34533.8 hPa SSW 15 km/h 15 km/h 67 % 0 mm
13:49 -7.5 °C -11.1 °C 34533.8 hPa SW 15 km/h 15 km/h 66 % 0 mm
13:54 -7.5 °C -10.9 °C 34533.8 hPa WSW 16.1 km/h 16.1 km/h 67 % 0 mm
13:59 -7.6 °C -11.1 °C 34533.8 hPa SSW 11.9 km/h 11.9 km/h 67 % 0 mm
14:04 -7.5 °C -10.9 °C 34533.8 hPa WSW 15 km/h 15 km/h 67 % 0 mm
14:09 -7.4 °C -10.8 °C 34533.8 hPa South 12.7 km/h 12.7 km/h 68 % 0 mm
14:14 -7.6 °C -11 °C 34496.6 hPa WSW 15 km/h 15 km/h 67 % 0 mm
14:19 -7.6 °C -10.9 °C 34496.6 hPa SSW 17.9 km/h 17.9 km/h 68 % 0 mm
14:24 -7.6 °C -10.9 °C 34496.6 hPa SW 20.9 km/h 20.9 km/h 68 % 0 mm
14:29 -7.5 °C -10.8 °C 34496.6 hPa WSW 10.3 km/h 10.3 km/h 68 % 0 mm
14:34 -7.3 °C -10.6 °C 34496.6 hPa SW 10.3 km/h 10.3 km/h 68 % 0 mm
14:39 -7.5 °C -10.9 °C 34496.6 hPa SSW 15 km/h 15 km/h 67 % 0 mm
14:49 -7.7 °C -11.2 °C 34496.6 hPa West 20.9 km/h 20.9 km/h 67 % 0 mm
14:54 -7.8 °C -11.1 °C 34496.6 hPa SSW 17.9 km/h 17.9 km/h 68 % 0 mm
14:59 -7.8 °C -11.1 °C 34496.6 hPa SW 11.9 km/h 11.9 km/h 68 % 0 mm
15:04 -7.8 °C -11.1 °C 34496.6 hPa SW 15 km/h 15 km/h 68 % 0 mm
15:09 -7.9 °C -11.1 °C 34496.6 hPa SSW 14.5 km/h 14.5 km/h 69 % 0 mm
15:14 -7.9 °C -11.2 °C 34496.6 hPa SW 17.9 km/h 17.9 km/h 69 % 0 mm
15:19 -7.9 °C -11 °C 34496.6 hPa SW 11.9 km/h 11.9 km/h 70 % 0 mm
15:29 -7.9 °C -10.9 °C 34462.7 hPa SSW 15 km/h 15 km/h 71 % 0 mm
15:34 -7.9 °C -10.9 °C 34462.7 hPa West 15 km/h 15 km/h 71 % 0 mm
15:39 -8.1 °C -10.9 °C 34462.7 hPa WSW 11.9 km/h 11.9 km/h 72 % 0 mm
15:44 -8.6 °C -11.3 °C 34462.7 hPa West 15 km/h 15 km/h 72 % 0 mm
15:54 -9.4 °C -12.1 °C 34462.7 hPa WSW 9 km/h 9 km/h 73 % 33.02 mm
15:59 -9.5 °C -12.2 °C 34496.6 hPa SW 6 km/h 6.3 km/h 73 % 33.02 mm
16:04 -9.6 °C -12.1 °C 34496.6 hPa SW 6 km/h 6 km/h 75 % 33.02 mm
16:09 -9.7 °C -12.1 °C 34496.6 hPa SSW 4.2 km/h 4.2 km/h 75 % 33.02 mm
16:14 -9.8 °C -12 °C 34462.7 hPa SSW 6 km/h   77 % 33.02 mm
16:19 -9.8 °C -12.2 °C 34462.7 hPa East 6 km/h 6 km/h 75 % 33.02 mm
16:24 -9.7 °C -12 °C 34462.7 hPa East 9 km/h 9 km/h 76 % 33.02 mm
16:30 -9.6 °C -11.8 °C 34462.7 hPa East 3.1 km/h 3.1 km/h 77 % 33.02 mm
16:35 -9.6 °C -11.8 °C 34462.7 hPa SW 6.3 km/h 6.3 km/h 77 % 33.02 mm
16:40 -9.5 °C -11.6 °C 34462.7 hPa SW 9 km/h 9 km/h 78 % 33.02 mm
16:45 -9.4 °C -11.7 °C 34462.7 hPa NE 6.3 km/h 6.3 km/h 77 % 33.02 mm
16:50 -9.3 °C -11.5 °C 34462.7 hPa NNE 6 km/h 6 km/h 77 % 0 mm
16:55 -9.2 °C -11.4 °C 34462.7 hPa ENE 6 km/h 6 km/h 77 % 0 mm
17:00 -9 °C -11.3 °C 34462.7 hPa WNW 6 km/h   76 % 0 mm
17:05 -8.8 °C -11.3 °C 34462.7 hPa NNW 3.7 km/h 3.7 km/h 75 % 0 mm
17:10 -8.7 °C -11.3 °C 34462.7 hPa West 3.1 km/h 3.1 km/h 74 % 0 mm
17:15 -8.6 °C -11.2 °C 34462.7 hPa SW 6 km/h 6 km/h 74 % 0 mm
17:20 -8.4 °C -11.1 °C 34462.7 hPa SW 3.1 km/h   74 % 0 mm
17:25 -8.3 °C -11.2 °C 34462.7 hPa SW 5.6 km/h 5.6 km/h 72 % 0 mm
17:30 -8.3 °C -11.2 °C 34462.7 hPa SW 6.8 km/h 6.8 km/h 72 % 0 mm
17:35 -8.3 °C -11.2 °C 34462.7 hPa WSW 6 km/h 6 km/h 72 % 0 mm
17:40 -8.3 °C -11.1 °C 34462.7 hPa SW 6 km/h 6 km/h 72 % 0 mm
17:45 -8.2 °C -11.1 °C 34428.8 hPa SW 9 km/h 9 km/h 72 % 0 mm
17:50 -8.2 °C -10.9 °C 34428.8 hPa SW 9 km/h 9 km/h 73 % 0 mm
17:55 -8.3 °C -10.9 °C 34428.8 hPa SW 6.8 km/h 6.8 km/h 74 % 0 mm
18:00 -8.3 °C -10.9 °C 34462.7 hPa SW 9 km/h 9 km/h 74 % 0 mm
18:05 -8.2 °C -10.8 °C 34462.7 hPa WSW 6.3 km/h 6.3 km/h 74 % 0 mm
18:10 -8.2 °C -11.3 °C 34462.7 hPa SSW 9.8 km/h 9.8 km/h 70 % 0 mm
18:15 -8.3 °C -11.8 °C 34428.8 hPa WSW 9 km/h 9 km/h 66 % 0 mm
18:20 -8.3 °C -12.1 °C 34428.8 hPa SW 9 km/h 9 km/h 64 % 0 mm
18:25 -8.3 °C -12.2 °C 34428.8 hPa WSW 9 km/h 9 km/h 63 % 0 mm
18:30 -8.3 °C -12.2 °C 34428.8 hPa WSW 12.2 km/h 12.2 km/h 63 % 0 mm
18:35 -8.3 °C -12.2 °C 34428.8 hPa SW 11.9 km/h 11.9 km/h 63 % 0 mm
18:40 -8.3 °C -12.3 °C 34428.8 hPa West 9 km/h 9 km/h 63 % 0 mm
18:45 -8.3 °C -12.2 °C 34395 hPa WNW 19.2 km/h 19.2 km/h 64 % 0 mm
18:50 -8.4 °C -11.9 °C 34395 hPa WSW 9 km/h 9.3 km/h 66 % 0 mm
18:55 -8.4 °C -12 °C 34395 hPa West 9 km/h 9 km/h 66 % 0 mm
19:00 -8.4 °C -11.9 °C 34428.8 hPa SW 11.9 km/h 11.9 km/h 67 % 0 mm
19:05 -8.5 °C -11.8 °C 34428.8 hPa WSW 12.7 km/h 12.7 km/h 68 % 0 mm
19:10 -8.5 °C -11.7 °C 34428.8 hPa WSW 8.5 km/h 8.5 km/h 69 % 0 mm
19:15 -8.6 °C -11.8 °C 34395 hPa West 15 km/h 15 km/h 69 % 0 mm
19:20 -8.6 °C -11.8 °C 34395 hPa West 15 km/h 15 km/h 69 % 0 mm
19:25 -8.7 °C -11.7 °C 34395 hPa West 16.6 km/h 16.6 km/h 70 % 0 mm
19:30 -8.7 °C -11.8 °C 34395 hPa WSW 11.9 km/h 11.9 km/h 70 % 0 mm
19:35 -8.7 °C -11.8 °C 34395 hPa West 11.9 km/h 11.9 km/h 70 % 0 mm
19:40 -8.8 °C -11.7 °C 34395 hPa SW 3.1 km/h 3.1 km/h 71 % 0 mm
19:45 -8.8 °C -11.8 °C 34395 hPa SW 15 km/h 15 km/h 71 % 0 mm
19:50 -8.9 °C -11.8 °C 34395 hPa WNW 9 km/h 9 km/h 71 % 0 mm
19:55 -8.9 °C -11.8 °C 34395 hPa WSW 7.6 km/h 7.6 km/h 71 % 0 mm
20:00 -8.9 °C -11.8 °C 34395 hPa WSW 9 km/h 9 km/h 72 % 0 mm
20:05 -9 °C -11.8 °C 34395 hPa WSW 6 km/h 6 km/h 72 % 0 mm
20:10 -9.1 °C -11.8 °C 34395 hPa WSW 11.9 km/h 11.9 km/h 72 % 0 mm
20:15 -9.1 °C -11.9 °C 34395 hPa WSW 9 km/h 9 km/h 72 % 0 mm
20:20 -9.1 °C -12.1 °C 34395 hPa WSW 9 km/h 9 km/h 71 % 0 mm
20:25 -9.2 °C -12.1 °C 34395 hPa West 9 km/h 9 km/h 71 % 0 mm
20:30 -9.2 °C -12.1 °C 34395 hPa WSW 8.5 km/h 8.5 km/h 71 % 0 mm
20:35 -9.3 °C -12.2 °C 34395 hPa WSW 11.9 km/h 11.9 km/h 71 % 0 mm
20:40 -9.3 °C -12.2 °C 34395 hPa SW 11.9 km/h 11.9 km/h 71 % 0 mm
20:45 -9.3 °C -12.2 °C 34428.8 hPa WSW 9 km/h 9 km/h 71 % 0 mm
20:50 -9.4 °C -12.3 °C 34428.8 hPa SW 6.3 km/h 6.3 km/h 71 % 0 mm
20:55 -9.4 °C -12.2 °C 34428.8 hPa SW 6 km/h 6 km/h 72 % 0 mm
21:00 -9.4 °C -12.2 °C 34428.8 hPa WSW 6.3 km/h 6.3 km/h 72 % 0 mm
21:05 -10.9 °C -12.9 °C 34462.7 hPa SW 2.6 km/h 5.1 km/h 78 % 0 mm
21:10 -9.4 °C -12.3 °C 34428.8 hPa West 9 km/h 9 km/h 71 % 0 mm
21:15 -9.5 °C -12.3 °C 34395 hPa WNW 6 km/h 6 km/h 72 % 0 mm
21:20 -9.5 °C -12.3 °C 34395 hPa West 6.8 km/h 6.8 km/h 72 % 0 mm
21:25 -9.6 °C -12.3 °C 34395 hPa WSW 6.3 km/h 6.3 km/h 72 % 0 mm
21:30 -9.6 °C -12.4 °C 34428.8 hPa SW 9.3 km/h 9.3 km/h 71 % 0 mm
21:35 -9.6 °C -12.4 °C 34428.8 hPa SW 9 km/h 9 km/h 71 % 0 mm
21:40 -9.6 °C -12.3 °C 34428.8 hPa WSW 8.5 km/h 8.5 km/h 72 % 0 mm
21:45 -9.6 °C -12.4 °C 34428.8 hPa WSW 8 km/h 8 km/h 71 % 0 mm
21:50 -9.6 °C -12.5 °C 34428.8 hPa WSW 11.9 km/h 11.9 km/h 71 % 0 mm
21:55 -9.6 °C -12.4 °C 34428.8 hPa SW 6 km/h 6 km/h 72 % 0 mm
22:00 -9.7 °C -12.4 °C 34462.7 hPa SW 5.6 km/h 5.6 km/h 72 % 0 mm
22:05 -9.7 °C -12.4 °C 34462.7 hPa WSW 6 km/h 6 km/h 72 % 0 mm
22:10 -9.7 °C -12.5 °C 34462.7 hPa WSW 6 km/h 6 km/h 72 % 0 mm
22:15 -9.7 °C -12.4 °C 34462.7 hPa SW 6.3 km/h 6.3 km/h 73 % 0 mm
22:20 -9.8 °C -12.4 °C 34462.7 hPa SW 7.6 km/h 7.6 km/h 73 % 0 mm
22:25 -9.8 °C -12.4 °C 34462.7 hPa SW 9 km/h 9 km/h 73 % 0 mm
22:30 -9.8 °C -12.4 °C 34428.8 hPa WSW 6 km/h 6 km/h 74 % 0 mm
22:35 -9.8 °C -12.4 °C 34428.8 hPa SW 6 km/h 6.3 km/h 74 % 0 mm
22:40 -9.9 °C -12.4 °C 34428.8 hPa SW 9 km/h 9 km/h 74 % 0 mm
22:45 -9.9 °C -12.4 °C 34428.8 hPa WSW 6 km/h 6 km/h 75 % 0 mm
22:50 -10 °C -12.4 °C 34428.8 hPa SW 6.3 km/h 6.3 km/h 75 % 0 mm
22:55 -10 °C -12.4 °C 34428.8 hPa SW 9 km/h 9 km/h 75 % 0 mm
23:00 -10.1 °C -12.4 °C 34462.7 hPa SW 5.1 km/h 7.7 km/h 75 % 0 mm
23:05 -10.1 °C -12.4 °C 34462.7 hPa SW 5.1 km/h 7.7 km/h 76 % 0 mm
23:10 -10.1 °C -12.4 °C 34462.7 hPa WSW 6 km/h 6 km/h 76 % 0 mm
23:15 -10.1 °C -12.4 °C 34462.7 hPa West 6 km/h   76 % 0 mm
23:20 -10.1 °C -12.4 °C 34462.7 hPa WSW 9 km/h 9 km/h 75 % 0 mm
23:25 -9.9 °C -12.4 °C 34462.7 hPa WSW 9 km/h 9 km/h 75 % 0 mm
23:30 -9.9 °C -12.4 °C 34428.8 hPa WSW 3.1 km/h 3.1 km/h 75 % 0 mm
23:35 -9.9 °C -12.4 °C 34428.8 hPa WSW 4.2 km/h 4.2 km/h 74 % 0 mm
23:40 -10 °C -12.6 °C 34428.8 hPa WSW 6.3 km/h 6.3 km/h 74 % 0 mm
23:45 -10 °C -12.6 °C 34462.7 hPa WSW 3.7 km/h 3.7 km/h 74 % 0 mm
23:50 -10.1 °C -12.4 °C 34462.7 hPa West 6 km/h 6 km/h 75 % 0 mm
23:55 -10.1 °C -12.6 °C 34462.7 hPa Calm     75 % 0 mm
Meteo Sesrovires
Elogis d' Weather Underground - 3.5 mb

Guio original per  Jim McMurry - jmcmurry@mwt.net Adaptat per a la plantilla per  Wim van der Kuil - Leuven-Template.eu

Trobareu la nostra informacio del temps tambe a:

Weather Underground

AWEKAS